Atlanta, Georgia
Traffic Map
Current Weather Conditions
Atlanta, Georgia
Scattered Clouds
Scattered Clouds
25°
Feels Like: 26°
Wind Chill: 25° Ceiling: Unl
Heat Index: 26° Visibility: 10mi
Dew Point: 23° Wind: 5mph
Humidity: 90% Direction: 300° (WNW)
Pressure: 30.07in Gusts: 0mph
Raw Report DataKATL 260552Z 30004KT 10SM FEW060 SCT075 25/23 A3007 RMK AO2 SLP170 60020 T02500233 10289 20250 50001
Traffic Incident Summary
Active as of:
Severity:
Category:
InformationThere was an issue retrieving the traffic information for this location. Please try a different location or try again shortly.
Advertisements
Track Severe Weather on mobile